<?xml version="1.0" encoding="UTF-8" standalone="no" ?>
<gpx xmlns="http://www.topografix.com/GPX/1/1" xmlns:xsi="http://www.w3.org/2001/XMLSchema-instance" xsi:schemaLocation="http://www.topografix.com/GPX/1/1 http://www.topografix.com/GPX/1/1/gpx.xsd" version="1.1" creator="VisuGPX - https://www.visugpx.com">
  <metadata>
    <name>entrainement 11 mars 2016</name>
    <desc><![CDATA[11 mars 2016]]></desc>
  </metadata>
  <trk>
    <name><![CDATA[11 Mar 2016]]></name>
    <cmt><![CDATA[14:46:55]]></cmt>
    <desc><![CDATA[comment ...]]></desc>
    <trkseg>
      <trkpt lat="44.35103" lon="2.48396">
        <ele>660</ele>
        <time>2016-03-11T13:46:56Z</time>
      </trkpt>
      <trkpt lat="44.35103" lon="2.48397">
        <ele>660</ele>
        <time>2016-03-11T13:46:57Z</time>
      </trkpt>
      <trkpt lat="44.351" lon="2.48399">
        <ele>659</ele>
        <time>2016-03-11T13:47:04Z</time>
      </trkpt>
      <trkpt lat="44.35098" lon="2.48402">
        <ele>659</ele>
        <time>2016-03-11T13:47:07Z</time>
      </trkpt>
      <trkpt lat="44.35097" lon="2.48404">
        <ele>659</ele>
        <time>2016-03-11T13:47:08Z</time>
      </trkpt>
      <trkpt lat="44.35097" lon="2.48406">
        <ele>659</ele>
        <time>2016-03-11T13:47:09Z</time>
      </trkpt>
      <trkpt lat="44.351" lon="2.4841">
        <ele>658</ele>
        <time>2016-03-11T13:47:13Z</time>
      </trkpt>
      <trkpt lat="44.35101" lon="2.48413">
        <ele>658</ele>
        <time>2016-03-11T13:47:15Z</time>
      </trkpt>
      <trkpt lat="44.35102" lon="2.48413">
        <ele>659</ele>
        <time>2016-03-11T13:47:17Z</time>
      </trkpt>
      <trkpt lat="44.35104" lon="2.48413">
        <ele>659</ele>
        <time>2016-03-11T13:47:18Z</time>
      </trkpt>
      <trkpt lat="44.35109" lon="2.48407">
        <ele>659</ele>
        <time>2016-03-11T13:47:24Z</time>
      </trkpt>
      <trkpt lat="44.35114" lon="2.48405">
        <ele>659</ele>
        <time>2016-03-11T13:47:28Z</time>
      </trkpt>
      <trkpt lat="44.35116" lon="2.48405">
        <ele>658</ele>
        <time>2016-03-11T13:47:30Z</time>
      </trkpt>
      <trkpt lat="44.35118" lon="2.48409">
        <ele>658</ele>
        <time>2016-03-11T13:47:32Z</time>
      </trkpt>
      <trkpt lat="44.35132" lon="2.48479">
        <ele>656</ele>
        <time>2016-03-11T13:48:02Z</time>
      </trkpt>
      <trkpt lat="44.35133" lon="2.48497">
        <ele>655</ele>
        <time>2016-03-11T13:48:10Z</time>
      </trkpt>
      <trkpt lat="44.35131" lon="2.48499">
        <ele>656</ele>
        <time>2016-03-11T13:48:11Z</time>
      </trkpt>
      <trkpt lat="44.35086" lon="2.48531">
        <ele>656</ele>
        <time>2016-03-11T13:48:41Z</time>
      </trkpt>
      <trkpt lat="44.35085" lon="2.48532">
        <ele>656</ele>
        <time>2016-03-11T13:48:42Z</time>
      </trkpt>
      <trkpt lat="44.35083" lon="2.48533">
        <ele>656</ele>
        <time>2016-03-11T13:48:43Z</time>
      </trkpt>
      <trkpt lat="44.35021" lon="2.48572">
        <ele>650</ele>
        <time>2016-03-11T13:49:24Z</time>
      </trkpt>
      <trkpt lat="44.34972" lon="2.48597">
        <ele>643</ele>
        <time>2016-03-11T13:49:55Z</time>
      </trkpt>
      <trkpt lat="44.3497" lon="2.48598">
        <ele>642</ele>
        <time>2016-03-11T13:49:56Z</time>
      </trkpt>
      <trkpt lat="44.34925" lon="2.48629">
        <ele>637</ele>
        <time>2016-03-11T13:50:26Z</time>
      </trkpt>
      <trkpt lat="44.34877" lon="2.48662">
        <ele>631</ele>
        <time>2016-03-11T13:50:56Z</time>
      </trkpt>
      <trkpt lat="44.34832" lon="2.48683">
        <ele>629</ele>
        <time>2016-03-11T13:51:26Z</time>
      </trkpt>
      <trkpt lat="44.3478" lon="2.48682">
        <ele>627</ele>
        <time>2016-03-11T13:51:56Z</time>
      </trkpt>
      <trkpt lat="44.34779" lon="2.48682">
        <ele>627</ele>
        <time>2016-03-11T13:51:57Z</time>
      </trkpt>
      <trkpt lat="44.34777" lon="2.48681">
        <ele>626</ele>
        <time>2016-03-11T13:51:58Z</time>
      </trkpt>
      <trkpt lat="44.34725" lon="2.48684">
        <ele>621</ele>
        <time>2016-03-11T13:52:28Z</time>
      </trkpt>
      <trkpt lat="44.3472" lon="2.4869">
        <ele>621</ele>
        <time>2016-03-11T13:52:32Z</time>
      </trkpt>
      <trkpt lat="44.34718" lon="2.48695">
        <ele>620</ele>
        <time>2016-03-11T13:52:34Z</time>
      </trkpt>
      <trkpt lat="44.34719" lon="2.48697">
        <ele>620</ele>
        <time>2016-03-11T13:52:35Z</time>
      </trkpt>
      <trkpt lat="44.34719" lon="2.487">
        <ele>620</ele>
        <time>2016-03-11T13:52:36Z</time>
      </trkpt>
      <trkpt lat="44.3472" lon="2.48702">
        <ele>620</ele>
        <time>2016-03-11T13:52:37Z</time>
      </trkpt>
      <trkpt lat="44.34725" lon="2.48706">
        <ele>620</ele>
        <time>2016-03-11T13:52:41Z</time>
      </trkpt>
      <trkpt lat="44.34773" lon="2.48716">
        <ele>621</ele>
        <time>2016-03-11T13:53:12Z</time>
      </trkpt>
      <trkpt lat="44.34777" lon="2.48718">
        <ele>621</ele>
        <time>2016-03-11T13:53:15Z</time>
      </trkpt>
      <trkpt lat="44.34779" lon="2.48721">
        <ele>621</ele>
        <time>2016-03-11T13:53:16Z</time>
      </trkpt>
      <trkpt lat="44.34786" lon="2.48724">
        <ele>621</ele>
        <time>2016-03-11T13:53:20Z</time>
      </trkpt>
      <trkpt lat="44.3479" lon="2.48722">
        <ele>622</ele>
        <time>2016-03-11T13:53:22Z</time>
      </trkpt>
      <trkpt lat="44.34824" lon="2.48751">
        <ele>621</ele>
        <time>2016-03-11T13:53:44Z</time>
      </trkpt>
      <trkpt lat="44.34825" lon="2.48747">
        <ele>621</ele>
        <time>2016-03-11T13:53:45Z</time>
      </trkpt>
      <trkpt lat="44.34874" lon="2.48776">
        <ele>618</ele>
        <time>2016-03-11T13:54:15Z</time>
      </trkpt>
      <trkpt lat="44.34876" lon="2.48787">
        <ele>617</ele>
        <time>2016-03-11T13:54:19Z</time>
      </trkpt>
      <trkpt lat="44.34874" lon="2.48795">
        <ele>615</ele>
        <time>2016-03-11T13:54:23Z</time>
      </trkpt>
      <trkpt lat="44.34872" lon="2.48798">
        <ele>615</ele>
        <time>2016-03-11T13:54:25Z</time>
      </trkpt>
      <trkpt lat="44.34868" lon="2.48802">
        <ele>614</ele>
        <time>2016-03-11T13:54:29Z</time>
      </trkpt>
      <trkpt lat="44.34821" lon="2.48826">
        <ele>603</ele>
        <time>2016-03-11T13:55:00Z</time>
      </trkpt>
      <trkpt lat="44.34774" lon="2.48862">
        <ele>596</ele>
        <time>2016-03-11T13:55:30Z</time>
      </trkpt>
      <trkpt lat="44.3475" lon="2.4889">
        <ele>592</ele>
        <time>2016-03-11T13:55:50Z</time>
      </trkpt>
      <trkpt lat="44.34725" lon="2.48952">
        <ele>584</ele>
        <time>2016-03-11T13:56:20Z</time>
      </trkpt>
      <trkpt lat="44.34726" lon="2.48954">
        <ele>584</ele>
        <time>2016-03-11T13:56:21Z</time>
      </trkpt>
      <trkpt lat="44.347" lon="2.49019">
        <ele>578</ele>
        <time>2016-03-11T13:56:51Z</time>
      </trkpt>
      <trkpt lat="44.34679" lon="2.49084">
        <ele>578</ele>
        <time>2016-03-11T13:57:21Z</time>
      </trkpt>
      <trkpt lat="44.34678" lon="2.49114">
        <ele>576</ele>
        <time>2016-03-11T13:57:35Z</time>
      </trkpt>
      <trkpt lat="44.34644" lon="2.49166">
        <ele>573</ele>
        <time>2016-03-11T13:58:05Z</time>
      </trkpt>
      <trkpt lat="44.3464" lon="2.49206">
        <ele>571</ele>
        <time>2016-03-11T13:58:21Z</time>
      </trkpt>
      <trkpt lat="44.34642" lon="2.49226">
        <ele>569</ele>
        <time>2016-03-11T13:58:30Z</time>
      </trkpt>
      <trkpt lat="44.34641" lon="2.4923">
        <ele>568</ele>
        <time>2016-03-11T13:58:32Z</time>
      </trkpt>
      <trkpt lat="44.34639" lon="2.49233">
        <ele>567</ele>
        <time>2016-03-11T13:58:34Z</time>
      </trkpt>
      <trkpt lat="44.34637" lon="2.49234">
        <ele>567</ele>
        <time>2016-03-11T13:58:36Z</time>
      </trkpt>
      <trkpt lat="44.34631" lon="2.4923">
        <ele>565</ele>
        <time>2016-03-11T13:58:40Z</time>
      </trkpt>
      <trkpt lat="44.34629" lon="2.49227">
        <ele>565</ele>
        <time>2016-03-11T13:58:42Z</time>
      </trkpt>
      <trkpt lat="44.34627" lon="2.49223">
        <ele>564</ele>
        <time>2016-03-11T13:58:44Z</time>
      </trkpt>
      <trkpt lat="44.34624" lon="2.49152">
        <ele>563</ele>
        <time>2016-03-11T13:59:14Z</time>
      </trkpt>
      <trkpt lat="44.34636" lon="2.49086">
        <ele>559</ele>
        <time>2016-03-11T13:59:44Z</time>
      </trkpt>
      <trkpt lat="44.3464" lon="2.49015">
        <ele>559</ele>
        <time>2016-03-11T14:00:14Z</time>
      </trkpt>
      <trkpt lat="44.34646" lon="2.48962">
        <ele>559</ele>
        <time>2016-03-11T14:00:36Z</time>
      </trkpt>
      <trkpt lat="44.34644" lon="2.48958">
        <ele>559</ele>
        <time>2016-03-11T14:00:39Z</time>
      </trkpt>
      <trkpt lat="44.3464" lon="2.48957">
        <ele>559</ele>
        <time>2016-03-11T14:00:41Z</time>
      </trkpt>
      <trkpt lat="44.34632" lon="2.48958">
        <ele>557</ele>
        <time>2016-03-11T14:00:43Z</time>
      </trkpt>
      <trkpt lat="44.34632" lon="2.48962">
        <ele>556</ele>
        <time>2016-03-11T14:00:44Z</time>
      </trkpt>
      <trkpt lat="44.34629" lon="2.48965">
        <ele>555</ele>
        <time>2016-03-11T14:00:46Z</time>
      </trkpt>
      <trkpt lat="44.34623" lon="2.49006">
        <ele>550</ele>
        <time>2016-03-11T14:01:02Z</time>
      </trkpt>
      <trkpt lat="44.34625" lon="2.49011">
        <ele>550</ele>
        <time>2016-03-11T14:01:04Z</time>
      </trkpt>
      <trkpt lat="44.34621" lon="2.49017">
        <ele>550</ele>
        <time>2016-03-11T14:01:06Z</time>
      </trkpt>
      <trkpt lat="44.34617" lon="2.49042">
        <ele>551</ele>
        <time>2016-03-11T14:01:16Z</time>
      </trkpt>
      <trkpt lat="44.34613" lon="2.49066">
        <ele>554</ele>
        <time>2016-03-11T14:01:25Z</time>
      </trkpt>
      <trkpt lat="44.34595" lon="2.49099">
        <ele>552</ele>
        <time>2016-03-11T14:01:44Z</time>
      </trkpt>
      <trkpt lat="44.34593" lon="2.49099">
        <ele>553</ele>
        <time>2016-03-11T14:01:45Z</time>
      </trkpt>
      <trkpt lat="44.3456" lon="2.49152">
        <ele>548</ele>
        <time>2016-03-11T14:02:15Z</time>
      </trkpt>
      <trkpt lat="44.34549" lon="2.49173">
        <ele>544</ele>
        <time>2016-03-11T14:02:27Z</time>
      </trkpt>
      <trkpt lat="44.34546" lon="2.49174">
        <ele>543</ele>
        <time>2016-03-11T14:02:29Z</time>
      </trkpt>
      <trkpt lat="44.34543" lon="2.49174">
        <ele>543</ele>
        <time>2016-03-11T14:02:30Z</time>
      </trkpt>
      <trkpt lat="44.34541" lon="2.49174">
        <ele>543</ele>
        <time>2016-03-11T14:02:31Z</time>
      </trkpt>
      <trkpt lat="44.3451" lon="2.49187">
        <ele>541</ele>
        <time>2016-03-11T14:02:51Z</time>
      </trkpt>
      <trkpt lat="44.34503" lon="2.49211">
        <ele>538</ele>
        <time>2016-03-11T14:03:03Z</time>
      </trkpt>
      <trkpt lat="44.34476" lon="2.49272">
        <ele>530</ele>
        <time>2016-03-11T14:03:33Z</time>
      </trkpt>
      <trkpt lat="44.34464" lon="2.49289">
        <ele>528</ele>
        <time>2016-03-11T14:03:43Z</time>
      </trkpt>
      <trkpt lat="44.34465" lon="2.49294">
        <ele>528</ele>
        <time>2016-03-11T14:03:45Z</time>
      </trkpt>
      <trkpt lat="44.34463" lon="2.49299">
        <ele>527</ele>
        <time>2016-03-11T14:03:47Z</time>
      </trkpt>
      <trkpt lat="44.34461" lon="2.49303">
        <ele>527</ele>
        <time>2016-03-11T14:03:49Z</time>
      </trkpt>
      <trkpt lat="44.34457" lon="2.49303">
        <ele>527</ele>
        <time>2016-03-11T14:03:50Z</time>
      </trkpt>
      <trkpt lat="44.34442" lon="2.49319">
        <ele>526</ele>
        <time>2016-03-11T14:04:08Z</time>
      </trkpt>
      <trkpt lat="44.34442" lon="2.49321">
        <ele>526</ele>
        <time>2016-03-11T14:04:09Z</time>
      </trkpt>
      <trkpt lat="44.3439" lon="2.49415">
        <ele>526</ele>
        <time>2016-03-11T14:04:39Z</time>
      </trkpt>
      <trkpt lat="44.34314" lon="2.49478">
        <ele>528</ele>
        <time>2016-03-11T14:05:09Z</time>
      </trkpt>
      <trkpt lat="44.34216" lon="2.4946">
        <ele>527</ele>
        <time>2016-03-11T14:05:39Z</time>
      </trkpt>
      <trkpt lat="44.34126" lon="2.49483">
        <ele>515</ele>
        <time>2016-03-11T14:06:09Z</time>
      </trkpt>
      <trkpt lat="44.34038" lon="2.49521">
        <ele>507</ele>
        <time>2016-03-11T14:06:39Z</time>
      </trkpt>
      <trkpt lat="44.33965" lon="2.49619">
        <ele>501</ele>
        <time>2016-03-11T14:07:08Z</time>
      </trkpt>
      <trkpt lat="44.33963" lon="2.49668">
        <ele>495</ele>
        <time>2016-03-11T14:07:18Z</time>
      </trkpt>
      <trkpt lat="44.3401" lon="2.49783">
        <ele>499</ele>
        <time>2016-03-11T14:07:48Z</time>
      </trkpt>
      <trkpt lat="44.34025" lon="2.49819">
        <ele>497</ele>
        <time>2016-03-11T14:07:59Z</time>
      </trkpt>
      <trkpt lat="44.34051" lon="2.49967">
        <ele>495</ele>
        <time>2016-03-11T14:08:29Z</time>
      </trkpt>
      <trkpt lat="44.34097" lon="2.50083">
        <ele>490</ele>
        <time>2016-03-11T14:08:59Z</time>
      </trkpt>
      <trkpt lat="44.34147" lon="2.50204">
        <ele>494</ele>
        <time>2016-03-11T14:09:29Z</time>
      </trkpt>
      <trkpt lat="44.34159" lon="2.5023">
        <ele>494</ele>
        <time>2016-03-11T14:09:36Z</time>
      </trkpt>
      <trkpt lat="44.34161" lon="2.50231">
        <ele>493</ele>
        <time>2016-03-11T14:09:37Z</time>
      </trkpt>
      <trkpt lat="44.34216" lon="2.5037">
        <ele>493</ele>
        <time>2016-03-11T14:10:07Z</time>
      </trkpt>
      <trkpt lat="44.34234" lon="2.50522">
        <ele>486</ele>
        <time>2016-03-11T14:10:38Z</time>
      </trkpt>
      <trkpt lat="44.34203" lon="2.50665">
        <ele>484</ele>
        <time>2016-03-11T14:11:09Z</time>
      </trkpt>
      <trkpt lat="44.3419" lon="2.50694">
        <ele>484</ele>
        <time>2016-03-11T14:11:15Z</time>
      </trkpt>
      <trkpt lat="44.34177" lon="2.50751">
        <ele>488</ele>
        <time>2016-03-11T14:11:26Z</time>
      </trkpt>
      <trkpt lat="44.34132" lon="2.50897">
        <ele>494</ele>
        <time>2016-03-11T14:11:57Z</time>
      </trkpt>
      <trkpt lat="44.3406" lon="2.51015">
        <ele>496</ele>
        <time>2016-03-11T14:12:28Z</time>
      </trkpt>
      <trkpt lat="44.33969" lon="2.51102">
        <ele>504</ele>
        <time>2016-03-11T14:12:58Z</time>
      </trkpt>
      <trkpt lat="44.33964" lon="2.51103">
        <ele>503</ele>
        <time>2016-03-11T14:13:00Z</time>
      </trkpt>
      <trkpt lat="44.33917" lon="2.51079">
        <ele>509</ele>
        <time>2016-03-11T14:13:14Z</time>
      </trkpt>
      <trkpt lat="44.3384" lon="2.51029">
        <ele>517</ele>
        <time>2016-03-11T14:13:39Z</time>
      </trkpt>
      <trkpt lat="44.33822" lon="2.51049">
        <ele>517</ele>
        <time>2016-03-11T14:13:45Z</time>
      </trkpt>
      <trkpt lat="44.33785" lon="2.51164">
        <ele>526</ele>
        <time>2016-03-11T14:14:15Z</time>
      </trkpt>
      <trkpt lat="44.33765" lon="2.51286">
        <ele>537</ele>
        <time>2016-03-11T14:14:45Z</time>
      </trkpt>
      <trkpt lat="44.33746" lon="2.51348">
        <ele>540</ele>
        <time>2016-03-11T14:15:05Z</time>
      </trkpt>
      <trkpt lat="44.33747" lon="2.5135">
        <ele>541</ele>
        <time>2016-03-11T14:15:33Z</time>
      </trkpt>
      <trkpt lat="44.33745" lon="2.51352">
        <ele>542</ele>
        <time>2016-03-11T14:15:51Z</time>
      </trkpt>
      <trkpt lat="44.33735" lon="2.51409">
        <ele>539</ele>
        <time>2016-03-11T14:16:21Z</time>
      </trkpt>
      <trkpt lat="44.33733" lon="2.51436">
        <ele>537</ele>
        <time>2016-03-11T14:16:33Z</time>
      </trkpt>
      <trkpt lat="44.33736" lon="2.51438">
        <ele>536</ele>
        <time>2016-03-11T14:16:34Z</time>
      </trkpt>
      <trkpt lat="44.33753" lon="2.51471">
        <ele>535</ele>
        <time>2016-03-11T14:16:45Z</time>
      </trkpt>
      <trkpt lat="44.3375" lon="2.51478">
        <ele>534</ele>
        <time>2016-03-11T14:16:46Z</time>
      </trkpt>
      <trkpt lat="44.33745" lon="2.51493">
        <ele>535</ele>
        <time>2016-03-11T14:16:50Z</time>
      </trkpt>
      <trkpt lat="44.33676" lon="2.51569">
        <ele>535</ele>
        <time>2016-03-11T14:17:20Z</time>
      </trkpt>
      <trkpt lat="44.33632" lon="2.51669">
        <ele>534</ele>
        <time>2016-03-11T14:17:50Z</time>
      </trkpt>
      <trkpt lat="44.33583" lon="2.51763">
        <ele>528</ele>
        <time>2016-03-11T14:18:20Z</time>
      </trkpt>
      <trkpt lat="44.33534" lon="2.51847">
        <ele>513</ele>
        <time>2016-03-11T14:18:50Z</time>
      </trkpt>
      <trkpt lat="44.3351" lon="2.51909">
        <ele>508</ele>
        <time>2016-03-11T14:19:09Z</time>
      </trkpt>
      <trkpt lat="44.33523" lon="2.51935">
        <ele>506</ele>
        <time>2016-03-11T14:19:20Z</time>
      </trkpt>
      <trkpt lat="44.33582" lon="2.51988">
        <ele>504</ele>
        <time>2016-03-11T14:19:48Z</time>
      </trkpt>
      <trkpt lat="44.3366" lon="2.52019">
        <ele>500</ele>
        <time>2016-03-11T14:20:18Z</time>
      </trkpt>
      <trkpt lat="44.33762" lon="2.5206">
        <ele>504</ele>
        <time>2016-03-11T14:20:48Z</time>
      </trkpt>
      <trkpt lat="44.33865" lon="2.5211">
        <ele>498</ele>
        <time>2016-03-11T14:21:18Z</time>
      </trkpt>
      <trkpt lat="44.33903" lon="2.52126">
        <ele>502</ele>
        <time>2016-03-11T14:21:30Z</time>
      </trkpt>
      <trkpt lat="44.33905" lon="2.52123">
        <ele>502</ele>
        <time>2016-03-11T14:21:32Z</time>
      </trkpt>
      <trkpt lat="44.33918" lon="2.52133">
        <ele>502</ele>
        <time>2016-03-11T14:21:36Z</time>
      </trkpt>
      <trkpt lat="44.33924" lon="2.52129">
        <ele>502</ele>
        <time>2016-03-11T14:21:38Z</time>
      </trkpt>
      <trkpt lat="44.33926" lon="2.52129">
        <ele>501</ele>
        <time>2016-03-11T14:21:39Z</time>
      </trkpt>
      <trkpt lat="44.33928" lon="2.52127">
        <ele>500</ele>
        <time>2016-03-11T14:21:40Z</time>
      </trkpt>
      <trkpt lat="44.33988" lon="2.52132">
        <ele>498</ele>
        <time>2016-03-11T14:21:59Z</time>
      </trkpt>
      <trkpt lat="44.33988" lon="2.52129">
        <ele>498</ele>
        <time>2016-03-11T14:22:01Z</time>
      </trkpt>
      <trkpt lat="44.34007" lon="2.52131">
        <ele>499</ele>
        <time>2016-03-11T14:22:06Z</time>
      </trkpt>
      <trkpt lat="44.34009" lon="2.52128">
        <ele>499</ele>
        <time>2016-03-11T14:22:07Z</time>
      </trkpt>
      <trkpt lat="44.34045" lon="2.52124">
        <ele>499</ele>
        <time>2016-03-11T14:22:16Z</time>
      </trkpt>
      <trkpt lat="44.34164" lon="2.52169">
        <ele>502</ele>
        <time>2016-03-11T14:22:46Z</time>
      </trkpt>
      <trkpt lat="44.34218" lon="2.52265">
        <ele>493</ele>
        <time>2016-03-11T14:23:06Z</time>
      </trkpt>
      <trkpt lat="44.3421" lon="2.5237">
        <ele>495</ele>
        <time>2016-03-11T14:23:25Z</time>
      </trkpt>
      <trkpt lat="44.34208" lon="2.52375">
        <ele>495</ele>
        <time>2016-03-11T14:23:27Z</time>
      </trkpt>
      <trkpt lat="44.34189" lon="2.52415">
        <ele>501</ele>
        <time>2016-03-11T14:23:48Z</time>
      </trkpt>
      <trkpt lat="44.34189" lon="2.52419">
        <ele>501</ele>
        <time>2016-03-11T14:23:50Z</time>
      </trkpt>
      <trkpt lat="44.34188" lon="2.52427">
        <ele>501</ele>
        <time>2016-03-11T14:23:54Z</time>
      </trkpt>
      <trkpt lat="44.34164" lon="2.52475">
        <ele>509</ele>
        <time>2016-03-11T14:24:24Z</time>
      </trkpt>
      <trkpt lat="44.34143" lon="2.52527">
        <ele>514</ele>
        <time>2016-03-11T14:24:54Z</time>
      </trkpt>
      <trkpt lat="44.34143" lon="2.52534">
        <ele>516</ele>
        <time>2016-03-11T14:24:58Z</time>
      </trkpt>
      <trkpt lat="44.34142" lon="2.52537">
        <ele>516</ele>
        <time>2016-03-11T14:25:00Z</time>
      </trkpt>
      <trkpt lat="44.34142" lon="2.5254">
        <ele>516</ele>
        <time>2016-03-11T14:25:02Z</time>
      </trkpt>
      <trkpt lat="44.34135" lon="2.52589">
        <ele>518</ele>
        <time>2016-03-11T14:25:33Z</time>
      </trkpt>
      <trkpt lat="44.34135" lon="2.52592">
        <ele>518</ele>
        <time>2016-03-11T14:25:34Z</time>
      </trkpt>
      <trkpt lat="44.34111" lon="2.5264">
        <ele>526</ele>
        <time>2016-03-11T14:26:04Z</time>
      </trkpt>
      <trkpt lat="44.34107" lon="2.52648">
        <ele>527</ele>
        <time>2016-03-11T14:26:10Z</time>
      </trkpt>
      <trkpt lat="44.34104" lon="2.5265">
        <ele>527</ele>
        <time>2016-03-11T14:26:12Z</time>
      </trkpt>
      <trkpt lat="44.34091" lon="2.52669">
        <ele>529</ele>
        <time>2016-03-11T14:26:26Z</time>
      </trkpt>
      <trkpt lat="44.34092" lon="2.52671">
        <ele>529</ele>
        <time>2016-03-11T14:26:29Z</time>
      </trkpt>
      <trkpt lat="44.34091" lon="2.52674">
        <ele>529</ele>
        <time>2016-03-11T14:26:30Z</time>
      </trkpt>
      <trkpt lat="44.34072" lon="2.52726">
        <ele>530</ele>
        <time>2016-03-11T14:27:02Z</time>
      </trkpt>
      <trkpt lat="44.3407" lon="2.52731">
        <ele>530</ele>
        <time>2016-03-11T14:27:04Z</time>
      </trkpt>
      <trkpt lat="44.34045" lon="2.52769">
        <ele>538</ele>
        <time>2016-03-11T14:27:34Z</time>
      </trkpt>
      <trkpt lat="44.34042" lon="2.52772">
        <ele>538</ele>
        <time>2016-03-11T14:27:36Z</time>
      </trkpt>
      <trkpt lat="44.34042" lon="2.52774">
        <ele>538</ele>
        <time>2016-03-11T14:27:37Z</time>
      </trkpt>
      <trkpt lat="44.34041" lon="2.52775">
        <ele>538</ele>
        <time>2016-03-11T14:27:38Z</time>
      </trkpt>
      <trkpt lat="44.34039" lon="2.52775">
        <ele>539</ele>
        <time>2016-03-11T14:27:39Z</time>
      </trkpt>
      <trkpt lat="44.34035" lon="2.52778">
        <ele>539</ele>
        <time>2016-03-11T14:27:42Z</time>
      </trkpt>
      <trkpt lat="44.34009" lon="2.52822">
        <ele>547</ele>
        <time>2016-03-11T14:28:12Z</time>
      </trkpt>
      <trkpt lat="44.33984" lon="2.52861">
        <ele>552</ele>
        <time>2016-03-11T14:28:42Z</time>
      </trkpt>
      <trkpt lat="44.3396" lon="2.52909">
        <ele>554</ele>
        <time>2016-03-11T14:29:12Z</time>
      </trkpt>
      <trkpt lat="44.3394" lon="2.52945">
        <ele>551</ele>
        <time>2016-03-11T14:29:36Z</time>
      </trkpt>
      <trkpt lat="44.33941" lon="2.52947">
        <ele>551</ele>
        <time>2016-03-11T14:29:38Z</time>
      </trkpt>
      <trkpt lat="44.33942" lon="2.5295">
        <ele>551</ele>
        <time>2016-03-11T14:29:40Z</time>
      </trkpt>
      <trkpt lat="44.33951" lon="2.52944">
        <ele>555</ele>
        <time>2016-03-11T14:29:50Z</time>
      </trkpt>
      <trkpt lat="44.33973" lon="2.52905">
        <ele>562</ele>
        <time>2016-03-11T14:30:20Z</time>
      </trkpt>
      <trkpt lat="44.33983" lon="2.52887">
        <ele>563</ele>
        <time>2016-03-11T14:30:33Z</time>
      </trkpt>
      <trkpt lat="44.33989" lon="2.52889">
        <ele>564</ele>
        <time>2016-03-11T14:30:38Z</time>
      </trkpt>
      <trkpt lat="44.33991" lon="2.52892">
        <ele>564</ele>
        <time>2016-03-11T14:30:40Z</time>
      </trkpt>
      <trkpt lat="44.33992" lon="2.52899">
        <ele>564</ele>
        <time>2016-03-11T14:30:43Z</time>
      </trkpt>
      <trkpt lat="44.33992" lon="2.52901">
        <ele>564</ele>
        <time>2016-03-11T14:30:44Z</time>
      </trkpt>
      <trkpt lat="44.33992" lon="2.52904">
        <ele>564</ele>
        <time>2016-03-11T14:30:46Z</time>
      </trkpt>
      <trkpt lat="44.33972" lon="2.52951">
        <ele>568</ele>
        <time>2016-03-11T14:31:16Z</time>
      </trkpt>
      <trkpt lat="44.3395" lon="2.53001">
        <ele>573</ele>
        <time>2016-03-11T14:31:47Z</time>
      </trkpt>
      <trkpt lat="44.33948" lon="2.53004">
        <ele>573</ele>
        <time>2016-03-11T14:31:49Z</time>
      </trkpt>
      <trkpt lat="44.33947" lon="2.53005">
        <ele>573</ele>
        <time>2016-03-11T14:31:50Z</time>
      </trkpt>
      <trkpt lat="44.33947" lon="2.53008">
        <ele>573</ele>
        <time>2016-03-11T14:31:51Z</time>
      </trkpt>
      <trkpt lat="44.33924" lon="2.53052">
        <ele>574</ele>
        <time>2016-03-11T14:32:21Z</time>
      </trkpt>
      <trkpt lat="44.3392" lon="2.53058">
        <ele>574</ele>
        <time>2016-03-11T14:32:26Z</time>
      </trkpt>
      <trkpt lat="44.33919" lon="2.53066">
        <ele>575</ele>
        <time>2016-03-11T14:32:30Z</time>
      </trkpt>
      <trkpt lat="44.3392" lon="2.53068">
        <ele>575</ele>
        <time>2016-03-11T14:32:32Z</time>
      </trkpt>
      <trkpt lat="44.33923" lon="2.53071">
        <ele>577</ele>
        <time>2016-03-11T14:32:36Z</time>
      </trkpt>
      <trkpt lat="44.33955" lon="2.53042">
        <ele>581</ele>
        <time>2016-03-11T14:33:06Z</time>
      </trkpt>
      <trkpt lat="44.33988" lon="2.53015">
        <ele>585</ele>
        <time>2016-03-11T14:33:37Z</time>
      </trkpt>
      <trkpt lat="44.34019" lon="2.52986">
        <ele>589</ele>
        <time>2016-03-11T14:34:07Z</time>
      </trkpt>
      <trkpt lat="44.34053" lon="2.52964">
        <ele>596</ele>
        <time>2016-03-11T14:34:37Z</time>
      </trkpt>
      <trkpt lat="44.34089" lon="2.52973">
        <ele>599</ele>
        <time>2016-03-11T14:35:07Z</time>
      </trkpt>
      <trkpt lat="44.3409" lon="2.52972">
        <ele>599</ele>
        <time>2016-03-11T14:35:08Z</time>
      </trkpt>
      <trkpt lat="44.34095" lon="2.52975">
        <ele>599</ele>
        <time>2016-03-11T14:35:11Z</time>
      </trkpt>
      <trkpt lat="44.34097" lon="2.52974">
        <ele>600</ele>
        <time>2016-03-11T14:35:12Z</time>
      </trkpt>
      <trkpt lat="44.34099" lon="2.52975">
        <ele>600</ele>
        <time>2016-03-11T14:35:14Z</time>
      </trkpt>
      <trkpt lat="44.341" lon="2.52974">
        <ele>601</ele>
        <time>2016-03-11T14:35:15Z</time>
      </trkpt>
      <trkpt lat="44.34103" lon="2.52975">
        <ele>602</ele>
        <time>2016-03-11T14:35:17Z</time>
      </trkpt>
      <trkpt lat="44.3414" lon="2.52964">
        <ele>604</ele>
        <time>2016-03-11T14:35:47Z</time>
      </trkpt>
      <trkpt lat="44.34174" lon="2.52978">
        <ele>606</ele>
        <time>2016-03-11T14:36:18Z</time>
      </trkpt>
      <trkpt lat="44.34179" lon="2.52983">
        <ele>607</ele>
        <time>2016-03-11T14:36:24Z</time>
      </trkpt>
      <trkpt lat="44.34182" lon="2.52982">
        <ele>609</ele>
        <time>2016-03-11T14:36:27Z</time>
      </trkpt>
      <trkpt lat="44.34185" lon="2.52977">
        <ele>611</ele>
        <time>2016-03-11T14:36:31Z</time>
      </trkpt>
      <trkpt lat="44.34211" lon="2.52928">
        <ele>613</ele>
        <time>2016-03-11T14:37:01Z</time>
      </trkpt>
      <trkpt lat="44.34243" lon="2.52891">
        <ele>616</ele>
        <time>2016-03-11T14:37:31Z</time>
      </trkpt>
      <trkpt lat="44.34274" lon="2.52852">
        <ele>617</ele>
        <time>2016-03-11T14:38:01Z</time>
      </trkpt>
      <trkpt lat="44.34306" lon="2.52825">
        <ele>614</ele>
        <time>2016-03-11T14:38:31Z</time>
      </trkpt>
      <trkpt lat="44.34345" lon="2.52813">
        <ele>614</ele>
        <time>2016-03-11T14:39:01Z</time>
      </trkpt>
      <trkpt lat="44.34387" lon="2.52808">
        <ele>615</ele>
        <time>2016-03-11T14:39:31Z</time>
      </trkpt>
      <trkpt lat="44.3443" lon="2.52807">
        <ele>615</ele>
        <time>2016-03-11T14:40:01Z</time>
      </trkpt>
      <trkpt lat="44.34488" lon="2.5281">
        <ele>615</ele>
        <time>2016-03-11T14:40:31Z</time>
      </trkpt>
      <trkpt lat="44.34585" lon="2.52819">
        <ele>611</ele>
        <time>2016-03-11T14:41:01Z</time>
      </trkpt>
      <trkpt lat="44.34668" lon="2.52829">
        <ele>608</ele>
        <time>2016-03-11T14:41:31Z</time>
      </trkpt>
      <trkpt lat="44.34753" lon="2.52845">
        <ele>606</ele>
        <time>2016-03-11T14:42:01Z</time>
      </trkpt>
      <trkpt lat="44.34835" lon="2.52846">
        <ele>602</ele>
        <time>2016-03-11T14:42:31Z</time>
      </trkpt>
      <trkpt lat="44.34918" lon="2.52845">
        <ele>603</ele>
        <time>2016-03-11T14:43:01Z</time>
      </trkpt>
      <trkpt lat="44.35008" lon="2.52852">
        <ele>601</ele>
        <time>2016-03-11T14:43:31Z</time>
      </trkpt>
      <trkpt lat="44.35095" lon="2.52866">
        <ele>598</ele>
        <time>2016-03-11T14:44:01Z</time>
      </trkpt>
      <trkpt lat="44.35147" lon="2.5288">
        <ele>596</ele>
        <time>2016-03-11T14:44:21Z</time>
      </trkpt>
      <trkpt lat="44.35148" lon="2.52877">
        <ele>596</ele>
        <time>2016-03-11T14:44:22Z</time>
      </trkpt>
      <trkpt lat="44.35149" lon="2.52873">
        <ele>596</ele>
        <time>2016-03-11T14:44:23Z</time>
      </trkpt>
      <trkpt lat="44.35148" lon="2.52869">
        <ele>596</ele>
        <time>2016-03-11T14:44:24Z</time>
      </trkpt>
      <trkpt lat="44.35088" lon="2.5277">
        <ele>599</ele>
        <time>2016-03-11T14:44:54Z</time>
      </trkpt>
      <trkpt lat="44.35034" lon="2.52664">
        <ele>601</ele>
        <time>2016-03-11T14:45:24Z</time>
      </trkpt>
      <trkpt lat="44.34978" lon="2.52574">
        <ele>604</ele>
        <time>2016-03-11T14:45:54Z</time>
      </trkpt>
      <trkpt lat="44.34918" lon="2.52487">
        <ele>606</ele>
        <time>2016-03-11T14:46:24Z</time>
      </trkpt>
      <trkpt lat="44.34919" lon="2.52475">
        <ele>605</ele>
        <time>2016-03-11T14:46:28Z</time>
      </trkpt>
      <trkpt lat="44.34878" lon="2.52383">
        <ele>603</ele>
        <time>2016-03-11T14:46:58Z</time>
      </trkpt>
      <trkpt lat="44.34831" lon="2.52296">
        <ele>598</ele>
        <time>2016-03-11T14:47:28Z</time>
      </trkpt>
      <trkpt lat="44.34793" lon="2.52192">
        <ele>596</ele>
        <time>2016-03-11T14:47:58Z</time>
      </trkpt>
      <trkpt lat="44.34752" lon="2.5208">
        <ele>596</ele>
        <time>2016-03-11T14:48:28Z</time>
      </trkpt>
      <trkpt lat="44.3471" lon="2.51977">
        <ele>599</ele>
        <time>2016-03-11T14:48:58Z</time>
      </trkpt>
      <trkpt lat="44.3466" lon="2.51882">
        <ele>601</ele>
        <time>2016-03-11T14:49:28Z</time>
      </trkpt>
      <trkpt lat="44.34612" lon="2.51766">
        <ele>604</ele>
        <time>2016-03-11T14:49:58Z</time>
      </trkpt>
      <trkpt lat="44.34563" lon="2.51668">
        <ele>611</ele>
        <time>2016-03-11T14:50:26Z</time>
      </trkpt>
      <trkpt lat="44.34565" lon="2.51664">
        <ele>611</ele>
        <time>2016-03-11T14:50:27Z</time>
      </trkpt>
      <trkpt lat="44.34568" lon="2.5166">
        <ele>611</ele>
        <time>2016-03-11T14:50:28Z</time>
      </trkpt>
      <trkpt lat="44.34655" lon="2.51627">
        <ele>611</ele>
        <time>2016-03-11T14:50:58Z</time>
      </trkpt>
      <trkpt lat="44.34737" lon="2.51636">
        <ele>606</ele>
        <time>2016-03-11T14:51:28Z</time>
      </trkpt>
      <trkpt lat="44.34804" lon="2.51643">
        <ele>607</ele>
        <time>2016-03-11T14:51:59Z</time>
      </trkpt>
      <trkpt lat="44.34852" lon="2.51648">
        <ele>605</ele>
        <time>2016-03-11T14:52:29Z</time>
      </trkpt>
      <trkpt lat="44.34898" lon="2.51648">
        <ele>602</ele>
        <time>2016-03-11T14:52:59Z</time>
      </trkpt>
      <trkpt lat="44.34941" lon="2.51648">
        <ele>599</ele>
        <time>2016-03-11T14:53:29Z</time>
      </trkpt>
      <trkpt lat="44.34983" lon="2.51631">
        <ele>596</ele>
        <time>2016-03-11T14:53:59Z</time>
      </trkpt>
      <trkpt lat="44.35018" lon="2.51605">
        <ele>590</ele>
        <time>2016-03-11T14:54:29Z</time>
      </trkpt>
      <trkpt lat="44.35048" lon="2.51564">
        <ele>585</ele>
        <time>2016-03-11T14:54:59Z</time>
      </trkpt>
      <trkpt lat="44.35087" lon="2.51572">
        <ele>581</ele>
        <time>2016-03-11T14:55:30Z</time>
      </trkpt>
      <trkpt lat="44.35127" lon="2.51548">
        <ele>580</ele>
        <time>2016-03-11T14:56:00Z</time>
      </trkpt>
      <trkpt lat="44.35164" lon="2.51518">
        <ele>578</ele>
        <time>2016-03-11T14:56:31Z</time>
      </trkpt>
      <trkpt lat="44.352" lon="2.51491">
        <ele>573</ele>
        <time>2016-03-11T14:57:01Z</time>
      </trkpt>
      <trkpt lat="44.35201" lon="2.5149">
        <ele>573</ele>
        <time>2016-03-11T14:57:02Z</time>
      </trkpt>
      <trkpt lat="44.35211" lon="2.51466">
        <ele>575</ele>
        <time>2016-03-11T14:57:17Z</time>
      </trkpt>
      <trkpt lat="44.35211" lon="2.51463">
        <ele>575</ele>
        <time>2016-03-11T14:57:19Z</time>
      </trkpt>
      <trkpt lat="44.3521" lon="2.51458">
        <ele>575</ele>
        <time>2016-03-11T14:57:21Z</time>
      </trkpt>
      <trkpt lat="44.3521" lon="2.51457">
        <ele>575</ele>
        <time>2016-03-11T14:57:23Z</time>
      </trkpt>
      <trkpt lat="44.35207" lon="2.51447">
        <ele>574</ele>
        <time>2016-03-11T14:57:28Z</time>
      </trkpt>
      <trkpt lat="44.35205" lon="2.51445">
        <ele>574</ele>
        <time>2016-03-11T14:57:30Z</time>
      </trkpt>
      <trkpt lat="44.35204" lon="2.51442">
        <ele>575</ele>
        <time>2016-03-11T14:57:32Z</time>
      </trkpt>
      <trkpt lat="44.35204" lon="2.51435">
        <ele>575</ele>
        <time>2016-03-11T14:57:35Z</time>
      </trkpt>
      <trkpt lat="44.35205" lon="2.51432">
        <ele>574</ele>
        <time>2016-03-11T14:57:38Z</time>
      </trkpt>
      <trkpt lat="44.35208" lon="2.51431">
        <ele>570</ele>
        <time>2016-03-11T14:57:42Z</time>
      </trkpt>
      <trkpt lat="44.35209" lon="2.51431">
        <ele>570</ele>
        <time>2016-03-11T14:57:43Z</time>
      </trkpt>
      <trkpt lat="44.35217" lon="2.51432">
        <ele>568</ele>
        <time>2016-03-11T14:57:49Z</time>
      </trkpt>
      <trkpt lat="44.35218" lon="2.51433">
        <ele>568</ele>
        <time>2016-03-11T14:57:51Z</time>
      </trkpt>
      <trkpt lat="44.35247" lon="2.51445">
        <ele>563</ele>
        <time>2016-03-11T14:58:21Z</time>
      </trkpt>
      <trkpt lat="44.35286" lon="2.51462">
        <ele>565</ele>
        <time>2016-03-11T14:58:52Z</time>
      </trkpt>
      <trkpt lat="44.35323" lon="2.51483">
        <ele>567</ele>
        <time>2016-03-11T14:59:23Z</time>
      </trkpt>
      <trkpt lat="44.35369" lon="2.51494">
        <ele>561</ele>
        <time>2016-03-11T14:59:54Z</time>
      </trkpt>
      <trkpt lat="44.35385" lon="2.51497">
        <ele>563</ele>
        <time>2016-03-11T15:00:04Z</time>
      </trkpt>
      <trkpt lat="44.35387" lon="2.515">
        <ele>564</ele>
        <time>2016-03-11T15:00:06Z</time>
      </trkpt>
      <trkpt lat="44.35431" lon="2.51494">
        <ele>570</ele>
        <time>2016-03-11T15:00:36Z</time>
      </trkpt>
      <trkpt lat="44.35479" lon="2.51475">
        <ele>562</ele>
        <time>2016-03-11T15:01:06Z</time>
      </trkpt>
      <trkpt lat="44.35597" lon="2.51444">
        <ele>565</ele>
        <time>2016-03-11T15:01:36Z</time>
      </trkpt>
      <trkpt lat="44.35676" lon="2.51579">
        <ele>563</ele>
        <time>2016-03-11T15:02:06Z</time>
      </trkpt>
      <trkpt lat="44.35703" lon="2.51637">
        <ele>560</ele>
        <time>2016-03-11T15:02:21Z</time>
      </trkpt>
      <trkpt lat="44.35793" lon="2.5171">
        <ele>561</ele>
        <time>2016-03-11T15:02:51Z</time>
      </trkpt>
      <trkpt lat="44.35841" lon="2.51855">
        <ele>561</ele>
        <time>2016-03-11T15:03:21Z</time>
      </trkpt>
      <trkpt lat="44.35905" lon="2.51973">
        <ele>572</ele>
        <time>2016-03-11T15:03:51Z</time>
      </trkpt>
      <trkpt lat="44.35905" lon="2.52009">
        <ele>573</ele>
        <time>2016-03-11T15:03:59Z</time>
      </trkpt>
      <trkpt lat="44.35897" lon="2.52019">
        <ele>573</ele>
        <time>2016-03-11T15:04:02Z</time>
      </trkpt>
      <trkpt lat="44.35889" lon="2.52021">
        <ele>574</ele>
        <time>2016-03-11T15:04:04Z</time>
      </trkpt>
      <trkpt lat="44.35886" lon="2.52019">
        <ele>574</ele>
        <time>2016-03-11T15:04:05Z</time>
      </trkpt>
      <trkpt lat="44.35882" lon="2.52012">
        <ele>575</ele>
        <time>2016-03-11T15:04:07Z</time>
      </trkpt>
      <trkpt lat="44.35869" lon="2.51958">
        <ele>579</ele>
        <time>2016-03-11T15:04:20Z</time>
      </trkpt>
      <trkpt lat="44.35824" lon="2.5195">
        <ele>582</ele>
        <time>2016-03-11T15:04:33Z</time>
      </trkpt>
      <trkpt lat="44.35786" lon="2.51986">
        <ele>584</ele>
        <time>2016-03-11T15:04:46Z</time>
      </trkpt>
      <trkpt lat="44.35731" lon="2.52119">
        <ele>591</ele>
        <time>2016-03-11T15:05:16Z</time>
      </trkpt>
      <trkpt lat="44.3569" lon="2.52261">
        <ele>596</ele>
        <time>2016-03-11T15:05:46Z</time>
      </trkpt>
      <trkpt lat="44.35685" lon="2.52327">
        <ele>599</ele>
        <time>2016-03-11T15:06:01Z</time>
      </trkpt>
      <trkpt lat="44.35693" lon="2.52335">
        <ele>600</ele>
        <time>2016-03-11T15:06:04Z</time>
      </trkpt>
      <trkpt lat="44.35789" lon="2.52369">
        <ele>606</ele>
        <time>2016-03-11T15:06:34Z</time>
      </trkpt>
      <trkpt lat="44.35872" lon="2.52431">
        <ele>606</ele>
        <time>2016-03-11T15:07:04Z</time>
      </trkpt>
      <trkpt lat="44.35946" lon="2.52513">
        <ele>608</ele>
        <time>2016-03-11T15:07:34Z</time>
      </trkpt>
      <trkpt lat="44.35997" lon="2.52619">
        <ele>607</ele>
        <time>2016-03-11T15:08:04Z</time>
      </trkpt>
      <trkpt lat="44.36021" lon="2.52737">
        <ele>608</ele>
        <time>2016-03-11T15:08:34Z</time>
      </trkpt>
      <trkpt lat="44.36034" lon="2.52838">
        <ele>602</ele>
        <time>2016-03-11T15:09:04Z</time>
      </trkpt>
      <trkpt lat="44.36055" lon="2.52914">
        <ele>598</ele>
        <time>2016-03-11T15:09:34Z</time>
      </trkpt>
      <trkpt lat="44.36056" lon="2.52925">
        <ele>598</ele>
        <time>2016-03-11T15:09:47Z</time>
      </trkpt>
      <trkpt lat="44.36065" lon="2.52934">
        <ele>599</ele>
        <time>2016-03-11T15:09:55Z</time>
      </trkpt>
      <trkpt lat="44.36066" lon="2.52933">
        <ele>598</ele>
        <time>2016-03-11T15:09:57Z</time>
      </trkpt>
      <trkpt lat="44.3611" lon="2.5295">
        <ele>597</ele>
        <time>2016-03-11T15:10:27Z</time>
      </trkpt>
      <trkpt lat="44.36158" lon="2.52962">
        <ele>597</ele>
        <time>2016-03-11T15:10:58Z</time>
      </trkpt>
      <trkpt lat="44.36203" lon="2.52985">
        <ele>595</ele>
        <time>2016-03-11T15:11:28Z</time>
      </trkpt>
      <trkpt lat="44.36244" lon="2.53015">
        <ele>593</ele>
        <time>2016-03-11T15:11:58Z</time>
      </trkpt>
      <trkpt lat="44.36288" lon="2.53046">
        <ele>592</ele>
        <time>2016-03-11T15:12:29Z</time>
      </trkpt>
      <trkpt lat="44.3633" lon="2.53073">
        <ele>590</ele>
        <time>2016-03-11T15:12:59Z</time>
      </trkpt>
      <trkpt lat="44.36374" lon="2.53082">
        <ele>590</ele>
        <time>2016-03-11T15:13:30Z</time>
      </trkpt>
      <trkpt lat="44.36381" lon="2.5308">
        <ele>590</ele>
        <time>2016-03-11T15:13:34Z</time>
      </trkpt>
      <trkpt lat="44.36381" lon="2.53076">
        <ele>590</ele>
        <time>2016-03-11T15:13:36Z</time>
      </trkpt>
      <trkpt lat="44.36399" lon="2.53021">
        <ele>590</ele>
        <time>2016-03-11T15:14:07Z</time>
      </trkpt>
      <trkpt lat="44.36417" lon="2.52962">
        <ele>587</ele>
        <time>2016-03-11T15:14:37Z</time>
      </trkpt>
      <trkpt lat="44.36417" lon="2.5296">
        <ele>587</ele>
        <time>2016-03-11T15:14:38Z</time>
      </trkpt>
      <trkpt lat="44.36418" lon="2.52958">
        <ele>587</ele>
        <time>2016-03-11T15:14:39Z</time>
      </trkpt>
      <trkpt lat="44.36419" lon="2.52956">
        <ele>587</ele>
        <time>2016-03-11T15:14:40Z</time>
      </trkpt>
      <trkpt lat="44.3642" lon="2.52947">
        <ele>587</ele>
        <time>2016-03-11T15:14:44Z</time>
      </trkpt>
      <trkpt lat="44.36423" lon="2.52943">
        <ele>587</ele>
        <time>2016-03-11T15:14:46Z</time>
      </trkpt>
      <trkpt lat="44.36424" lon="2.52939">
        <ele>587</ele>
        <time>2016-03-11T15:14:48Z</time>
      </trkpt>
      <trkpt lat="44.36423" lon="2.52937">
        <ele>586</ele>
        <time>2016-03-11T15:14:49Z</time>
      </trkpt>
      <trkpt lat="44.36429" lon="2.52887">
        <ele>588</ele>
        <time>2016-03-11T15:15:19Z</time>
      </trkpt>
      <trkpt lat="44.36429" lon="2.52885">
        <ele>588</ele>
        <time>2016-03-11T15:15:20Z</time>
      </trkpt>
      <trkpt lat="44.3645" lon="2.52777">
        <ele>581</ele>
        <time>2016-03-11T15:15:50Z</time>
      </trkpt>
      <trkpt lat="44.36476" lon="2.52673">
        <ele>576</ele>
        <time>2016-03-11T15:16:20Z</time>
      </trkpt>
      <trkpt lat="44.36507" lon="2.52561">
        <ele>570</ele>
        <time>2016-03-11T15:16:50Z</time>
      </trkpt>
      <trkpt lat="44.36542" lon="2.52436">
        <ele>568</ele>
        <time>2016-03-11T15:17:20Z</time>
      </trkpt>
      <trkpt lat="44.36625" lon="2.52358">
        <ele>567</ele>
        <time>2016-03-11T15:17:50Z</time>
      </trkpt>
      <trkpt lat="44.3666" lon="2.5223">
        <ele>570</ele>
        <time>2016-03-11T15:18:20Z</time>
      </trkpt>
      <trkpt lat="44.36677" lon="2.52096">
        <ele>573</ele>
        <time>2016-03-11T15:18:50Z</time>
      </trkpt>
      <trkpt lat="44.3668" lon="2.51964">
        <ele>580</ele>
        <time>2016-03-11T15:19:20Z</time>
      </trkpt>
      <trkpt lat="44.36677" lon="2.51833">
        <ele>582</ele>
        <time>2016-03-11T15:19:50Z</time>
      </trkpt>
      <trkpt lat="44.36668" lon="2.51703">
        <ele>584</ele>
        <time>2016-03-11T15:20:20Z</time>
      </trkpt>
      <trkpt lat="44.36667" lon="2.51571">
        <ele>587</ele>
        <time>2016-03-11T15:20:50Z</time>
      </trkpt>
      <trkpt lat="44.36673" lon="2.51548">
        <ele>588</ele>
        <time>2016-03-11T15:21:00Z</time>
      </trkpt>
      <trkpt lat="44.36654" lon="2.51416">
        <ele>590</ele>
        <time>2016-03-11T15:21:30Z</time>
      </trkpt>
      <trkpt lat="44.36667" lon="2.51285">
        <ele>591</ele>
        <time>2016-03-11T15:22:00Z</time>
      </trkpt>
      <trkpt lat="44.36692" lon="2.51159">
        <ele>590</ele>
        <time>2016-03-11T15:22:30Z</time>
      </trkpt>
      <trkpt lat="44.36709" lon="2.51036">
        <ele>588</ele>
        <time>2016-03-11T15:23:00Z</time>
      </trkpt>
      <trkpt lat="44.36727" lon="2.50918">
        <ele>583</ele>
        <time>2016-03-11T15:23:30Z</time>
      </trkpt>
      <trkpt lat="44.36767" lon="2.5079">
        <ele>580</ele>
        <time>2016-03-11T15:24:00Z</time>
      </trkpt>
      <trkpt lat="44.36769" lon="2.50664">
        <ele>588</ele>
        <time>2016-03-11T15:24:30Z</time>
      </trkpt>
      <trkpt lat="44.36776" lon="2.50527">
        <ele>589</ele>
        <time>2016-03-11T15:25:00Z</time>
      </trkpt>
      <trkpt lat="44.36785" lon="2.50392">
        <ele>591</ele>
        <time>2016-03-11T15:25:30Z</time>
      </trkpt>
      <trkpt lat="44.36788" lon="2.50272">
        <ele>591</ele>
        <time>2016-03-11T15:26:00Z</time>
      </trkpt>
      <trkpt lat="44.36788" lon="2.50269">
        <ele>591</ele>
        <time>2016-03-11T15:26:01Z</time>
      </trkpt>
      <trkpt lat="44.36788" lon="2.50267">
        <ele>591</ele>
        <time>2016-03-11T15:26:02Z</time>
      </trkpt>
      <trkpt lat="44.36788" lon="2.50264">
        <ele>591</ele>
        <time>2016-03-11T15:26:03Z</time>
      </trkpt>
      <trkpt lat="44.36789" lon="2.50199">
        <ele>591</ele>
        <time>2016-03-11T15:26:33Z</time>
      </trkpt>
      <trkpt lat="44.36789" lon="2.50197">
        <ele>591</ele>
        <time>2016-03-11T15:26:34Z</time>
      </trkpt>
      <trkpt lat="44.36789" lon="2.50194">
        <ele>591</ele>
        <time>2016-03-11T15:26:35Z</time>
      </trkpt>
      <trkpt lat="44.36789" lon="2.50169">
        <ele>589</ele>
        <time>2016-03-11T15:26:48Z</time>
      </trkpt>
      <trkpt lat="44.36787" lon="2.50167">
        <ele>590</ele>
        <time>2016-03-11T15:26:49Z</time>
      </trkpt>
      <trkpt lat="44.36786" lon="2.50166">
        <ele>590</ele>
        <time>2016-03-11T15:26:50Z</time>
      </trkpt>
      <trkpt lat="44.36783" lon="2.50163">
        <ele>591</ele>
        <time>2016-03-11T15:26:54Z</time>
      </trkpt>
      <trkpt lat="44.36784" lon="2.50161">
        <ele>592</ele>
        <time>2016-03-11T15:26:57Z</time>
      </trkpt>
      <trkpt lat="44.36786" lon="2.50162">
        <ele>592</ele>
        <time>2016-03-11T15:26:59Z</time>
      </trkpt>
      <trkpt lat="44.36792" lon="2.50157">
        <ele>592</ele>
        <time>2016-03-11T15:27:03Z</time>
      </trkpt>
      <trkpt lat="44.36795" lon="2.50152">
        <ele>592</ele>
        <time>2016-03-11T15:27:06Z</time>
      </trkpt>
      <trkpt lat="44.36806" lon="2.50085">
        <ele>592</ele>
        <time>2016-03-11T15:27:36Z</time>
      </trkpt>
      <trkpt lat="44.36818" lon="2.50022">
        <ele>593</ele>
        <time>2016-03-11T15:28:06Z</time>
      </trkpt>
      <trkpt lat="44.36817" lon="2.50019">
        <ele>593</ele>
        <time>2016-03-11T15:28:07Z</time>
      </trkpt>
      <trkpt lat="44.36825" lon="2.49956">
        <ele>591</ele>
        <time>2016-03-11T15:28:37Z</time>
      </trkpt>
      <trkpt lat="44.36826" lon="2.49954">
        <ele>591</ele>
        <time>2016-03-11T15:28:38Z</time>
      </trkpt>
      <trkpt lat="44.36841" lon="2.49893">
        <ele>591</ele>
        <time>2016-03-11T15:29:08Z</time>
      </trkpt>
      <trkpt lat="44.36854" lon="2.49832">
        <ele>591</ele>
        <time>2016-03-11T15:29:38Z</time>
      </trkpt>
      <trkpt lat="44.36859" lon="2.49809">
        <ele>592</ele>
        <time>2016-03-11T15:29:49Z</time>
      </trkpt>
      <trkpt lat="44.36858" lon="2.49807">
        <ele>591</ele>
        <time>2016-03-11T15:29:50Z</time>
      </trkpt>
      <trkpt lat="44.36858" lon="2.49804">
        <ele>592</ele>
        <time>2016-03-11T15:29:51Z</time>
      </trkpt>
      <trkpt lat="44.36856" lon="2.49798">
        <ele>592</ele>
        <time>2016-03-11T15:29:54Z</time>
      </trkpt>
      <trkpt lat="44.36843" lon="2.49791">
        <ele>590</ele>
        <time>2016-03-11T15:30:02Z</time>
      </trkpt>
      <trkpt lat="44.36841" lon="2.49791">
        <ele>590</ele>
        <time>2016-03-11T15:30:03Z</time>
      </trkpt>
      <trkpt lat="44.3684" lon="2.4979">
        <ele>590</ele>
        <time>2016-03-11T15:30:04Z</time>
      </trkpt>
      <trkpt lat="44.36838" lon="2.4979">
        <ele>589</ele>
        <time>2016-03-11T15:30:05Z</time>
      </trkpt>
      <trkpt lat="44.36794" lon="2.49772">
        <ele>592</ele>
        <time>2016-03-11T15:30:35Z</time>
      </trkpt>
      <trkpt lat="44.36748" lon="2.49747">
        <ele>590</ele>
        <time>2016-03-11T15:31:05Z</time>
      </trkpt>
      <trkpt lat="44.36706" lon="2.49723">
        <ele>589</ele>
        <time>2016-03-11T15:31:35Z</time>
      </trkpt>
      <trkpt lat="44.36705" lon="2.49722">
        <ele>589</ele>
        <time>2016-03-11T15:31:36Z</time>
      </trkpt>
      <trkpt lat="44.36662" lon="2.49707">
        <ele>588</ele>
        <time>2016-03-11T15:32:06Z</time>
      </trkpt>
      <trkpt lat="44.36621" lon="2.49685">
        <ele>585</ele>
        <time>2016-03-11T15:32:36Z</time>
      </trkpt>
      <trkpt lat="44.36614" lon="2.49682">
        <ele>585</ele>
        <time>2016-03-11T15:32:40Z</time>
      </trkpt>
      <trkpt lat="44.36613" lon="2.4968">
        <ele>585</ele>
        <time>2016-03-11T15:32:42Z</time>
      </trkpt>
      <trkpt lat="44.36609" lon="2.49678">
        <ele>585</ele>
        <time>2016-03-11T15:32:45Z</time>
      </trkpt>
      <trkpt lat="44.36597" lon="2.4965">
        <ele>587</ele>
        <time>2016-03-11T15:33:01Z</time>
      </trkpt>
      <trkpt lat="44.36597" lon="2.49648">
        <ele>587</ele>
        <time>2016-03-11T15:33:02Z</time>
      </trkpt>
      <trkpt lat="44.36596" lon="2.49642">
        <ele>587</ele>
        <time>2016-03-11T15:33:05Z</time>
      </trkpt>
      <trkpt lat="44.36596" lon="2.49638">
        <ele>587</ele>
        <time>2016-03-11T15:33:07Z</time>
      </trkpt>
      <trkpt lat="44.36595" lon="2.49634">
        <ele>588</ele>
        <time>2016-03-11T15:33:09Z</time>
      </trkpt>
      <trkpt lat="44.36596" lon="2.49632">
        <ele>589</ele>
        <time>2016-03-11T15:33:10Z</time>
      </trkpt>
      <trkpt lat="44.3654" lon="2.49516">
        <ele>593</ele>
        <time>2016-03-11T15:33:40Z</time>
      </trkpt>
      <trkpt lat="44.3648" lon="2.49407">
        <ele>599</ele>
        <time>2016-03-11T15:34:10Z</time>
      </trkpt>
      <trkpt lat="44.36416" lon="2.49303">
        <ele>602</ele>
        <time>2016-03-11T15:34:40Z</time>
      </trkpt>
      <trkpt lat="44.36337" lon="2.49218">
        <ele>603</ele>
        <time>2016-03-11T15:35:10Z</time>
      </trkpt>
      <trkpt lat="44.36269" lon="2.49127">
        <ele>607</ele>
        <time>2016-03-11T15:35:40Z</time>
      </trkpt>
      <trkpt lat="44.36271" lon="2.49087">
        <ele>609</ele>
        <time>2016-03-11T15:35:48Z</time>
      </trkpt>
      <trkpt lat="44.36271" lon="2.49082">
        <ele>609</ele>
        <time>2016-03-11T15:35:49Z</time>
      </trkpt>
      <trkpt lat="44.3631" lon="2.48952">
        <ele>611</ele>
        <time>2016-03-11T15:36:19Z</time>
      </trkpt>
      <trkpt lat="44.36313" lon="2.48946">
        <ele>611</ele>
        <time>2016-03-11T15:36:21Z</time>
      </trkpt>
      <trkpt lat="44.36313" lon="2.48926">
        <ele>612</ele>
        <time>2016-03-11T15:36:25Z</time>
      </trkpt>
      <trkpt lat="44.36297" lon="2.48899">
        <ele>614</ele>
        <time>2016-03-11T15:36:32Z</time>
      </trkpt>
      <trkpt lat="44.36217" lon="2.48831">
        <ele>616</ele>
        <time>2016-03-11T15:37:02Z</time>
      </trkpt>
      <trkpt lat="44.36135" lon="2.4878">
        <ele>621</ele>
        <time>2016-03-11T15:37:32Z</time>
      </trkpt>
      <trkpt lat="44.36048" lon="2.48727">
        <ele>624</ele>
        <time>2016-03-11T15:38:02Z</time>
      </trkpt>
      <trkpt lat="44.35952" lon="2.48688">
        <ele>626</ele>
        <time>2016-03-11T15:38:32Z</time>
      </trkpt>
      <trkpt lat="44.35861" lon="2.48655">
        <ele>632</ele>
        <time>2016-03-11T15:39:02Z</time>
      </trkpt>
      <trkpt lat="44.35779" lon="2.48608">
        <ele>643</ele>
        <time>2016-03-11T15:39:32Z</time>
      </trkpt>
      <trkpt lat="44.35702" lon="2.48539">
        <ele>643</ele>
        <time>2016-03-11T15:40:02Z</time>
      </trkpt>
      <trkpt lat="44.35647" lon="2.4844">
        <ele>649</ele>
        <time>2016-03-11T15:40:32Z</time>
      </trkpt>
      <trkpt lat="44.35646" lon="2.48436">
        <ele>650</ele>
        <time>2016-03-11T15:40:33Z</time>
      </trkpt>
      <trkpt lat="44.35643" lon="2.48432">
        <ele>650</ele>
        <time>2016-03-11T15:40:34Z</time>
      </trkpt>
      <trkpt lat="44.3559" lon="2.48348">
        <ele>654</ele>
        <time>2016-03-11T15:41:04Z</time>
      </trkpt>
      <trkpt lat="44.35589" lon="2.48346">
        <ele>654</ele>
        <time>2016-03-11T15:41:05Z</time>
      </trkpt>
      <trkpt lat="44.35587" lon="2.48346">
        <ele>653</ele>
        <time>2016-03-11T15:41:06Z</time>
      </trkpt>
      <trkpt lat="44.35586" lon="2.48344">
        <ele>653</ele>
        <time>2016-03-11T15:41:07Z</time>
      </trkpt>
      <trkpt lat="44.35556" lon="2.48304">
        <ele>653</ele>
        <time>2016-03-11T15:41:37Z</time>
      </trkpt>
      <trkpt lat="44.35554" lon="2.48303">
        <ele>654</ele>
        <time>2016-03-11T15:41:38Z</time>
      </trkpt>
      <trkpt lat="44.35553" lon="2.48301">
        <ele>655</ele>
        <time>2016-03-11T15:41:39Z</time>
      </trkpt>
      <trkpt lat="44.35536" lon="2.48273">
        <ele>655</ele>
        <time>2016-03-11T15:41:51Z</time>
      </trkpt>
      <trkpt lat="44.3553" lon="2.48272">
        <ele>654</ele>
        <time>2016-03-11T15:41:55Z</time>
      </trkpt>
      <trkpt lat="44.35506" lon="2.48235">
        <ele>656</ele>
        <time>2016-03-11T15:42:26Z</time>
      </trkpt>
      <trkpt lat="44.35504" lon="2.48233">
        <ele>656</ele>
        <time>2016-03-11T15:42:27Z</time>
      </trkpt>
      <trkpt lat="44.35503" lon="2.48231">
        <ele>656</ele>
        <time>2016-03-11T15:42:28Z</time>
      </trkpt>
      <trkpt lat="44.35502" lon="2.4823">
        <ele>657</ele>
        <time>2016-03-11T15:42:29Z</time>
      </trkpt>
      <trkpt lat="44.35477" lon="2.48199">
        <ele>654</ele>
        <time>2016-03-11T15:42:50Z</time>
      </trkpt>
      <trkpt lat="44.35474" lon="2.48199">
        <ele>652</ele>
        <time>2016-03-11T15:42:52Z</time>
      </trkpt>
      <trkpt lat="44.35472" lon="2.48193">
        <ele>651</ele>
        <time>2016-03-11T15:42:56Z</time>
      </trkpt>
      <trkpt lat="44.3547" lon="2.48193">
        <ele>652</ele>
        <time>2016-03-11T15:42:58Z</time>
      </trkpt>
      <trkpt lat="44.35465" lon="2.48188">
        <ele>651</ele>
        <time>2016-03-11T15:43:02Z</time>
      </trkpt>
      <trkpt lat="44.35463" lon="2.48183">
        <ele>652</ele>
        <time>2016-03-11T15:43:05Z</time>
      </trkpt>
      <trkpt lat="44.35461" lon="2.48181">
        <ele>652</ele>
        <time>2016-03-11T15:43:06Z</time>
      </trkpt>
      <trkpt lat="44.35459" lon="2.48177">
        <ele>653</ele>
        <time>2016-03-11T15:43:09Z</time>
      </trkpt>
      <trkpt lat="44.35458" lon="2.48176">
        <ele>655</ele>
        <time>2016-03-11T15:43:10Z</time>
      </trkpt>
      <trkpt lat="44.35458" lon="2.48174">
        <ele>657</ele>
        <time>2016-03-11T15:43:12Z</time>
      </trkpt>
      <trkpt lat="44.35455" lon="2.48172">
        <ele>658</ele>
        <time>2016-03-11T15:43:13Z</time>
      </trkpt>
      <trkpt lat="44.35454" lon="2.4817">
        <ele>658</ele>
        <time>2016-03-11T15:43:14Z</time>
      </trkpt>
      <trkpt lat="44.3545" lon="2.48168">
        <ele>656</ele>
        <time>2016-03-11T15:43:17Z</time>
      </trkpt>
      <trkpt lat="44.35448" lon="2.48168">
        <ele>655</ele>
        <time>2016-03-11T15:43:18Z</time>
      </trkpt>
      <trkpt lat="44.35413" lon="2.48123">
        <ele>637</ele>
        <time>2016-03-11T15:43:48Z</time>
      </trkpt>
      <trkpt lat="44.35409" lon="2.48119">
        <ele>647</ele>
        <time>2016-03-11T15:43:52Z</time>
      </trkpt>
      <trkpt lat="44.35404" lon="2.48117">
        <ele>650</ele>
        <time>2016-03-11T15:43:56Z</time>
      </trkpt>
      <trkpt lat="44.35378" lon="2.48099">
        <ele>659</ele>
        <time>2016-03-11T15:44:20Z</time>
      </trkpt>
      <trkpt lat="44.35375" lon="2.48102">
        <ele>659</ele>
        <time>2016-03-11T15:44:22Z</time>
      </trkpt>
      <trkpt lat="44.35365" lon="2.48112">
        <ele>659</ele>
        <time>2016-03-11T15:44:30Z</time>
      </trkpt>
      <trkpt lat="44.35364" lon="2.48116">
        <ele>658</ele>
        <time>2016-03-11T15:44:34Z</time>
      </trkpt>
      <trkpt lat="44.35362" lon="2.48118">
        <ele>658</ele>
        <time>2016-03-11T15:44:35Z</time>
      </trkpt>
      <trkpt lat="44.35358" lon="2.48125">
        <ele>657</ele>
        <time>2016-03-11T15:44:40Z</time>
      </trkpt>
      <trkpt lat="44.35343" lon="2.48141">
        <ele>657</ele>
        <time>2016-03-11T15:44:48Z</time>
      </trkpt>
      <trkpt lat="44.35343" lon="2.48146">
        <ele>657</ele>
        <time>2016-03-11T15:44:53Z</time>
      </trkpt>
      <trkpt lat="44.35341" lon="2.48148">
        <ele>657</ele>
        <time>2016-03-11T15:44:54Z</time>
      </trkpt>
      <trkpt lat="44.35342" lon="2.48152">
        <ele>658</ele>
        <time>2016-03-11T15:44:58Z</time>
      </trkpt>
      <trkpt lat="44.35319" lon="2.48182">
        <ele>656</ele>
        <time>2016-03-11T15:45:17Z</time>
      </trkpt>
      <trkpt lat="44.35314" lon="2.48203">
        <ele>657</ele>
        <time>2016-03-11T15:45:30Z</time>
      </trkpt>
      <trkpt lat="44.35309" lon="2.48208">
        <ele>659</ele>
        <time>2016-03-11T15:45:34Z</time>
      </trkpt>
      <trkpt lat="44.35309" lon="2.48216">
        <ele>660</ele>
        <time>2016-03-11T15:45:38Z</time>
      </trkpt>
      <trkpt lat="44.35296" lon="2.48235">
        <ele>658</ele>
        <time>2016-03-11T15:45:44Z</time>
      </trkpt>
      <trkpt lat="44.35297" lon="2.48242">
        <ele>649</ele>
        <time>2016-03-11T15:45:49Z</time>
      </trkpt>
      <trkpt lat="44.35291" lon="2.48248">
        <ele>648</ele>
        <time>2016-03-11T15:45:52Z</time>
      </trkpt>
      <trkpt lat="44.35291" lon="2.48255">
        <ele>651</ele>
        <time>2016-03-11T15:45:56Z</time>
      </trkpt>
      <trkpt lat="44.35284" lon="2.48288">
        <ele>653</ele>
        <time>2016-03-11T15:46:13Z</time>
      </trkpt>
      <trkpt lat="44.35286" lon="2.48294">
        <ele>653</ele>
        <time>2016-03-11T15:46:15Z</time>
      </trkpt>
      <trkpt lat="44.35282" lon="2.48302">
        <ele>654</ele>
        <time>2016-03-11T15:46:22Z</time>
      </trkpt>
      <trkpt lat="44.35285" lon="2.48315">
        <ele>655</ele>
        <time>2016-03-11T15:46:28Z</time>
      </trkpt>
      <trkpt lat="44.35283" lon="2.48321">
        <ele>656</ele>
        <time>2016-03-11T15:46:31Z</time>
      </trkpt>
      <trkpt lat="44.35284" lon="2.48327">
        <ele>657</ele>
        <time>2016-03-11T15:46:33Z</time>
      </trkpt>
      <trkpt lat="44.35266" lon="2.48383">
        <ele>659</ele>
        <time>2016-03-11T15:47:05Z</time>
      </trkpt>
      <trkpt lat="44.35239" lon="2.48422">
        <ele>660</ele>
        <time>2016-03-11T15:47:36Z</time>
      </trkpt>
      <trkpt lat="44.35238" lon="2.48424">
        <ele>660</ele>
        <time>2016-03-11T15:47:37Z</time>
      </trkpt>
      <trkpt lat="44.35237" lon="2.48425">
        <ele>660</ele>
        <time>2016-03-11T15:47:38Z</time>
      </trkpt>
      <trkpt lat="44.35234" lon="2.48431">
        <ele>660</ele>
        <time>2016-03-11T15:47:42Z</time>
      </trkpt>
      <trkpt lat="44.35196" lon="2.48465">
        <ele>657</ele>
        <time>2016-03-11T15:48:12Z</time>
      </trkpt>
      <trkpt lat="44.35154" lon="2.4849">
        <ele>656</ele>
        <time>2016-03-11T15:48:42Z</time>
      </trkpt>
      <trkpt lat="44.35152" lon="2.48491">
        <ele>656</ele>
        <time>2016-03-11T15:48:43Z</time>
      </trkpt>
      <trkpt lat="44.3515" lon="2.4849">
        <ele>656</ele>
        <time>2016-03-11T15:48:44Z</time>
      </trkpt>
      <trkpt lat="44.35146" lon="2.48487">
        <ele>657</ele>
        <time>2016-03-11T15:48:47Z</time>
      </trkpt>
      <trkpt lat="44.35144" lon="2.48485">
        <ele>657</ele>
        <time>2016-03-11T15:48:48Z</time>
      </trkpt>
      <trkpt lat="44.35128" lon="2.48428">
        <ele>661</ele>
        <time>2016-03-11T15:49:18Z</time>
      </trkpt>
      <trkpt lat="44.35125" lon="2.48417">
        <ele>663</ele>
        <time>2016-03-11T15:49:23Z</time>
      </trkpt>
      <trkpt lat="44.35123" lon="2.48415">
        <ele>663</ele>
        <time>2016-03-11T15:49:24Z</time>
      </trkpt>
      <trkpt lat="44.35117" lon="2.48404">
        <ele>664</ele>
        <time>2016-03-11T15:49:31Z</time>
      </trkpt>
      <trkpt lat="44.35116" lon="2.48408">
        <ele>663</ele>
        <time>2016-03-11T15:49:37Z</time>
      </trkpt>
      <trkpt lat="44.35114" lon="2.48407">
        <ele>663</ele>
        <time>2016-03-11T15:49:41Z</time>
      </trkpt>
      <trkpt lat="44.35113" lon="2.48409">
        <ele>660</ele>
        <time>2016-03-11T15:49:45Z</time>
      </trkpt>
      <trkpt lat="44.35112" lon="2.48409">
        <ele>660</ele>
        <time>2016-03-11T15:50:08Z</time>
      </trkpt>
      <trkpt lat="44.35109" lon="2.48411">
        <ele>660</ele>
        <time>2016-03-11T15:50:10Z</time>
      </trkpt>
      <trkpt lat="44.35107" lon="2.48411">
        <ele>659</ele>
        <time>2016-03-11T15:50:12Z</time>
      </trkpt>
      <trkpt lat="44.35104" lon="2.4841">
        <ele>659</ele>
        <time>2016-03-11T15:50:14Z</time>
      </trkpt>
      <trkpt lat="44.35094" lon="2.48402">
        <ele>659</ele>
        <time>2016-03-11T15:50:40Z</time>
      </trkpt>
    </trkseg>
  </trk>
</gpx>